Time;durP1;ratioP1;P1;durP2;ratioP2;P2;SDS_P1;SDS_P2;PMS_P1;PMS_P2;Temp;Humidity;BMP_temperature;BMP_pressure;BME280_temperature;BME280_humidity;BME280_pressure;Samples;Min_cycle;Max_cycle;Signal;HPM_P1;HPM_P2
2022/01/02 00:01:14;;;;;;;12.93;4.87;;;11.60;99.90;;;;;;4983765;28;20207;-88
2022/01/02 00:03:43;;;;;;;10.07;4.30;;;11.70;99.90;;;;;;4990333;28;20234;-89
2022/01/02 00:06:13;;;;;;;13.47;5.37;;;11.80;99.90;;;;;;4967253;28;20219;-89
2022/01/02 00:08:47;;;;;;;13.97;5.23;;;11.60;99.90;;;;;;4965508;28;20211;-88
2022/01/02 00:11:17;;;;;;;14.80;5.37;;;11.60;99.90;;;;;;4965280;28;20232;-89
2022/01/02 00:13:48;;;;;;;11.93;4.80;;;11.80;99.90;;;;;;4965096;28;20730;-89
2022/01/02 00:16:16;;;;;;;14.20;4.93;;;11.70;99.90;;;;;;4964439;28;20228;-88
2022/01/02 00:18:50;;;;;;;13.40;4.77;;;11.80;99.90;;;;;;4951722;28;20771;-88
2022/01/02 00:21:21;;;;;;;14.60;5.10;;;11.90;99.90;;;;;;4968520;28;20242;-88
2022/01/02 00:23:59;;;;;;;16.30;5.37;;;11.70;99.90;;;;;;4960073;28;20346;-89
2022/01/02 00:26:34;;;;;;;12.97;5.10;;;11.60;99.90;;;;;;4951557;28;20208;-88
2022/01/02 00:29:04;;;;;;;18.87;5.27;;;11.70;99.90;;;;;;4966189;28;20211;-88
2022/01/02 00:31:32;;;;;;;14.60;5.07;;;11.70;99.90;;;;;;4968163;28;21254;-87
2022/01/02 00:33:59;;;;;;;15.57;5.60;;;11.90;99.90;;;;;;4970235;28;20214;-88
2022/01/02 00:36:27;;;;;;;16.70;6.10;;;11.70;99.90;;;;;;4963653;28;20219;-89
2022/01/02 00:38:56;;;;;;;13.27;5.07;;;11.70;99.90;;;;;;4952125;28;20222;-89
2022/01/02 00:41:27;;;;;;;16.33;5.67;;;11.80;99.90;;;;;;4953188;28;20230;-87
2022/01/02 00:44:02;;;;;;;16.50;5.77;;;11.80;99.90;;;;;;4953470;28;20283;-86
2022/01/02 00:46:33;;;;;;;13.40;5.23;;;11.80;99.90;;;;;;4964844;28;20207;-87
2022/01/02 00:49:05;;;;;;;15.23;4.93;;;11.80;99.90;;;;;;4970718;28;20203;-88
2022/01/02 00:51:46;;;;;;;17.40;6.20;;;12.60;99.90;;;;;;4955138;28;20738;-88
2022/01/02 00:54:17;;;;;;;13.30;4.67;;;11.80;99.90;;;;;;4964592;28;20758;-90
2022/01/02 00:56:46;;;;;;;13.83;5.40;;;12.10;99.90;;;;;;4956098;28;20376;-89
2022/01/02 00:59:26;;;;;;;14.53;5.87;;;11.80;99.90;;;;;;4952430;28;23699;-87
2022/01/02 01:02:02;;;;;;;15.37;5.50;;;12.00;99.90;;;;;;4958527;28;20794;-89
2022/01/02 01:04:32;;;;;;;14.03;4.80;;;11.90;99.90;;;;;;4955715;28;20220;-89
2022/01/02 01:07:04;;;;;;;17.17;5.47;;;11.90;99.90;;;;;;4959606;28;20208;-88
2022/01/02 01:09:35;;;;;;;17.83;5.90;;;11.80;99.90;;;;;;4962157;28;20855;-89
2022/01/02 01:12:04;;;;;;;14.77;5.70;;;11.90;99.90;;;;;;4971199;28;20294;-87
2022/01/02 01:14:32;;;;;;;13.90;5.20;;;11.90;99.90;;;;;;4954298;28;20226;-88
2022/01/02 01:16:59;;;;;;;14.50;5.40;;;12.00;99.90;;;;;;4954558;28;20693;-88
2022/01/02 01:19:27;;;;;;;17.40;5.77;;;12.00;99.90;;;;;;4986034;28;20275;-88
2022/01/02 01:21:54;;;;;;;13.27;5.60;;;11.90;99.90;;;;;;4950382;28;20590;-87
2022/01/02 01:24:21;;;;;;;15.63;5.23;;;12.00;99.90;;;;;;4962072;28;20242;-88
2022/01/02 01:26:53;;;;;;;15.77;5.00;;;12.00;99.90;;;;;;4977078;28;20196;-88
2022/01/02 01:29:20;;;;;;;14.83;5.43;;;12.00;99.90;;;;;;5009262;28;20208;-88
2022/01/02 01:31:48;;;;;;;18.37;7.03;;;12.00;99.90;;;;;;4972049;28;20235;-86
2022/01/02 01:34:15;;;;;;;14.13;5.43;;;12.00;99.90;;;;;;4976258;28;20303;-86
2022/01/02 01:36:42;;;;;;;12.90;4.73;;;12.20;99.90;;;;;;4959355;28;20656;-86
2022/01/02 01:39:09;;;;;;;15.53;5.27;;;12.00;99.90;;;;;;4966120;28;20711;-86
2022/01/02 01:41:38;;;;;;;14.60;5.23;;;12.10;99.90;;;;;;4963516;28;20326;-86
2022/01/02 01:44:26;;;;;;;15.43;5.73;;;12.20;99.90;;;;;;4971477;28;20211;-86
2022/01/02 01:46:55;;;;;;;11.90;5.10;;;12.10;99.90;;;;;;4968229;28;20238;-86
2022/01/02 01:49:27;;;;;;;14.73;4.90;;;12.10;99.90;;;;;;4956693;28;20624;-86
2022/01/02 01:51:55;;;;;;;13.43;5.37;;;12.10;99.90;;;;;;4958341;28;20216;-86
2022/01/02 01:54:24;;;;;;;13.27;5.10;;;12.10;99.90;;;;;;4963682;28;20247;-87
2022/01/02 01:56:53;;;;;;;11.57;4.63;;;12.10;99.90;;;;;;4974829;28;20226;-87
2022/01/02 01:59:24;;;;;;;14.63;4.83;;;12.10;99.90;;;;;;4974322;28;20224;-88
2022/01/02 02:01:53;;;;;;;16.50;6.30;;;12.10;99.90;;;;;;4971454;28;20185;-87
2022/01/02 02:04:21;;;;;;;12.90;5.20;;;12.10;99.90;;;;;;4982906;28;20232;-87
2022/01/02 02:06:48;;;;;;;15.27;5.57;;;12.10;99.90;;;;;;4967357;28;20554;-87
2022/01/02 02:09:19;;;;;;;14.67;5.17;;;12.10;99.90;;;;;;4953093;28;20235;-88
2022/01/02 02:11:46;;;;;;;14.17;5.40;;;11.50;99.90;;;;;;4953424;28;20220;-86
2022/01/02 02:14:14;;;;;;;14.53;5.73;;;12.10;99.90;;;;;;4953711;28;20302;-87
2022/01/02 02:16:43;;;;;;;13.90;5.33;;;12.20;99.90;;;;;;4953721;28;20661;-87
2022/01/02 02:19:13;;;;;;;16.07;5.77;;;12.10;99.90;;;;;;4952750;28;20227;-87
2022/01/02 02:21:42;;;;;;;13.50;5.57;;;12.40;99.90;;;;;;4953116;28;20781;-88
2022/01/02 02:24:10;;;;;;;15.03;5.50;;;12.10;99.90;;;;;;4952365;28;20216;-88
2022/01/02 02:26:38;;;;;;;17.37;5.53;;;12.10;99.90;;;;;;4951768;28;20220;-89
2022/01/02 02:29:06;;;;;;;15.77;5.87;;;12.10;99.90;;;;;;4953099;28;20231;-89
2022/01/02 02:31:34;;;;;;;13.30;5.10;;;12.00;99.90;;;;;;4953502;28;20216;-89
2022/01/02 02:34:02;;;;;;;12.87;5.10;;;12.10;99.90;;;;;;4953289;28;20605;-88
2022/01/02 02:36:29;;;;;;;15.53;5.57;;;12.00;99.90;;;;;;4969560;28;20652;-88
2022/01/02 02:38:57;;;;;;;14.87;5.73;;;12.00;99.90;;;;;;4953084;28;20204;-88
2022/01/02 02:41:30;;;;;;;12.53;5.10;;;12.00;99.90;;;;;;4954694;28;20580;-88
2022/01/02 02:44:03;;;;;;;15.17;5.63;;;12.00;99.90;;;;;;4955763;28;20219;-88
2022/01/02 02:49:17;;;;;;;18.10;5.60;;;12.00;99.90;;;;;;4976016;28;20232;-89
2022/01/02 02:51:50;;;;;;;16.13;5.43;;;12.00;99.90;;;;;;4979222;28;20226;-89
2022/01/02 02:54:25;;;;;;;16.00;5.63;;;12.20;99.90;;;;;;4952782;28;20220;-88
2022/01/02 02:56:57;;;;;;;12.47;5.00;;;12.10;99.90;;;;;;4955447;28;20220;-89
2022/01/02 02:59:29;;;;;;;17.90;6.17;;;12.10;99.90;;;;;;4947168;28;20235;-89
2022/01/02 03:01:56;;;;;;;14.17;5.23;;;12.10;99.90;;;;;;4962948;28;20227;-88
2022/01/02 03:04:24;;;;;;;14.87;5.07;;;12.20;99.90;;;;;;4967942;28;20211;-88
2022/01/02 03:06:53;;;;;;;15.47;5.47;;;12.20;99.90;;;;;;4953672;28;20212;-88
2022/01/02 03:09:36;;;;;;;15.83;5.10;;;12.10;99.90;;;;;;4951293;28;20243;-88
2022/01/02 03:12:05;;;;;;;14.07;5.50;;;12.20;99.90;;;;;;4951622;28;20208;-88
2022/01/02 03:14:33;;;;;;;13.87;5.03;;;12.20;99.90;;;;;;4967191;28;20218;-89
2022/01/02 03:17:02;;;;;;;14.33;5.33;;;12.20;99.90;;;;;;4952002;28;20299;-89
2022/01/02 03:19:29;;;;;;;12.53;5.10;;;12.20;99.90;;;;;;4959008;28;20227;-89
2022/01/02 03:21:56;;;;;;;13.77;5.17;;;13.40;99.90;;;;;;4959630;28;20227;-89
2022/01/02 03:24:23;;;;;;;15.77;5.87;;;12.20;99.90;;;;;;4961526;28;20228;-88
2022/01/02 03:26:50;;;;;;;16.20;5.63;;;12.20;99.90;;;;;;4949142;28;20279;-89
2022/01/02 03:29:19;;;;;;;14.97;5.03;;;12.20;99.90;;;;;;4954528;28;20235;-89
2022/01/02 03:31:46;;;;;;;16.87;5.60;;;12.20;99.90;;;;;;4956297;28;20598;-89
2022/01/02 03:34:13;;;;;;;15.03;5.70;;;12.10;99.90;;;;;;4984421;28;20392;-89
2022/01/02 03:36:40;;;;;;;14.63;5.60;;;12.10;99.90;;;;;;4960253;28;20216;-88
2022/01/02 03:39:07;;;;;;;15.33;5.67;;;12.10;99.90;;;;;;4957129;28;20236;-89
2022/01/02 03:41:34;;;;;;;;;;;12.10;99.90;;;;;;4961953;28;20632;-88
2022/01/02 03:44:01;;;;;;;13.70;4.90;;;12.10;99.90;;;;;;4968240;28;20032;-89
2022/01/02 03:46:30;;;;;;;20.83;6.37;;;12.10;99.90;;;;;;4951524;28;20800;-88
2022/01/02 03:48:57;;;;;;;13.67;4.97;;;12.10;99.90;;;;;;4954397;28;20465;-88
2022/01/02 03:51:24;;;;;;;17.00;5.37;;;12.10;99.90;;;;;;4969080;28;20212;-89
2022/01/02 03:53:51;;;;;;;12.60;5.10;;;12.10;99.90;;;;;;4952048;28;20743;-89
2022/01/02 03:56:18;;;;;;;16.97;6.30;;;12.40;99.90;;;;;;4957726;28;21070;-89
2022/01/02 03:58:45;;;;;;;20.33;6.23;;;12.00;99.90;;;;;;4951079;28;20259;-89
2022/01/02 04:01:12;;;;;;;21.43;6.10;;;12.00;99.90;;;;;;4951567;28;20247;-87
2022/01/02 04:03:41;;;;;;;21.87;6.73;;;12.00;99.90;;;;;;4959153;28;20279;-87
2022/01/02 04:06:08;;;;;;;11.83;4.90;;;12.00;99.90;;;;;;4968492;28;20306;-88
2022/01/02 04:08:35;;;;;;;15.53;5.97;;;11.90;99.90;;;;;;4951970;28;20215;-87
2022/01/02 04:11:02;;;;;;;15.13;5.60;;;12.00;99.90;;;;;;4967156;28;20259;-87
2022/01/02 04:13:29;;;;;;;15.77;5.80;;;12.00;99.90;;;;;;4958069;28;20299;-90
2022/01/02 04:15:57;;;;;;;17.30;6.57;;;12.00;99.90;;;;;;4960211;28;20648;-89
2022/01/02 04:18:24;;;;;;;17.97;6.00;;;11.80;99.90;;;;;;4982545;28;20231;-89
2022/01/02 04:20:53;;;;;;;15.87;5.53;;;11.90;99.90;;;;;;4950785;28;20306;-90
2022/01/02 04:23:21;;;;;;;16.37;6.13;;;12.00;99.90;;;;;;4960904;28;20360;-90
2022/01/02 04:25:48;;;;;;;;;;;11.80;99.90;;;;;;4951319;28;20240;-89
2022/01/02 04:28:16;;;;;;;;;;;11.80;99.90;;;;;;4950164;28;20688;-90
2022/01/02 04:30:43;;;;;;;;;;;12.00;99.90;;;;;;4950476;28;20050;-87
2022/01/02 04:33:10;;;;;;;;;;;11.80;99.90;;;;;;4959156;28;19926;-87
2022/01/02 04:35:37;;;;;;;15.70;5.90;;;11.80;99.90;;;;;;4951614;28;20067;-87
2022/01/02 04:38:06;;;;;;;;;;;11.70;99.90;;;;;;4950394;28;20771;-87
2022/01/02 04:40:33;;;;;;;;;;;11.80;99.90;;;;;;4950353;28;19922;-87
2022/01/02 04:42:59;;;;;;;;;;;11.70;99.90;;;;;;4951118;28;20064;-88
2022/01/02 04:45:27;;;;;;;;;;;12.00;99.90;;;;;;4967896;28;19926;-87
2022/01/02 04:47:55;;;;;;;;;;;11.70;99.90;;;;;;4950802;28;19926;-88
2022/01/02 04:50:22;;;;;;;16.37;5.70;;;11.60;99.90;;;;;;4947334;28;20210;-88
2022/01/02 04:52:49;;;;;;;16.70;5.57;;;11.60;99.90;;;;;;4950405;28;20668;-88
2022/01/02 04:55:18;;;;;;;18.17;6.17;;;11.60;99.90;;;;;;4963549;28;20361;-88
2022/01/02 04:57:45;;;;;;;19.87;6.53;;;11.60;99.90;;;;;;4981451;28;20231;-90
2022/01/02 05:00:14;;;;;;;18.13;6.20;;;11.60;99.90;;;;;;4950587;28;20239;-88
2022/01/02 05:02:41;;;;;;;17.47;6.83;;;11.50;99.90;;;;;;4950251;28;20250;-88
2022/01/02 05:05:09;;;;;;;16.83;6.57;;;11.40;99.90;;;;;;4962328;28;20231;-90
2022/01/02 05:07:36;;;;;;;15.80;6.20;;;11.50;99.90;;;;;;4950470;28;20259;-88
2022/01/02 05:10:06;;;;;;;13.70;5.13;;;11.50;99.90;;;;;;4955928;28;20241;-87
2022/01/02 05:12:35;;;;;;;17.10;6.17;;;11.40;99.90;;;;;;4959175;28;20604;-87
2022/01/02 05:15:03;;;;;;;18.73;6.20;;;11.40;99.90;;;;;;4959398;28;20735;-87
2022/01/02 05:17:31;;;;;;;16.20;5.67;;;11.40;99.90;;;;;;4966155;28;20247;-87
2022/01/02 05:19:58;;;;;;;17.03;6.73;;;11.40;99.90;;;;;;4959209;28;21108;-88
2022/01/02 05:22:25;;;;;;;18.37;5.97;;;11.40;99.90;;;;;;4981930;28;20215;-87
2022/01/02 05:24:53;;;;;;;14.27;5.83;;;11.40;99.90;;;;;;4955999;28;20699;-88
2022/01/02 05:27:20;;;;;;;16.97;6.53;;;11.40;99.90;;;;;;4963675;28;20226;-88
2022/01/02 05:29:50;;;;;;;14.17;6.13;;;11.30;99.90;;;;;;4974044;28;20208;-88
2022/01/02 05:32:17;;;;;;;17.07;6.43;;;11.30;99.90;;;;;;4972540;28;20393;-89
2022/01/02 05:34:44;;;;;;;18.33;5.90;;;11.50;99.90;;;;;;4961924;28;20200;-87
2022/01/02 05:37:11;;;;;;;15.87;5.80;;;11.30;99.90;;;;;;4951938;28;20219;-86
2022/01/02 05:39:38;;;;;;;17.70;6.17;;;11.30;99.90;;;;;;4955265;28;20942;-87
2022/01/02 05:42:07;;;;;;;16.20;6.30;;;11.30;99.90;;;;;;4981537;28;20771;-88
2022/01/02 05:44:34;;;;;;;15.97;5.60;;;11.40;99.90;;;;;;4970106;28;20283;-87
2022/01/02 05:47:02;;;;;;;13.30;5.67;;;11.40;99.90;;;;;;4964671;28;20216;-88
2022/01/02 05:49:30;;;;;;;14.70;6.03;;;11.40;99.90;;;;;;4955800;28;20232;-88
2022/01/02 05:51:57;;;;;;;14.40;5.93;;;11.30;99.90;;;;;;4955161;28;20362;-88
2022/01/02 05:54:25;;;;;;;14.37;5.73;;;11.40;99.90;;;;;;4955468;28;20814;-88
2022/01/02 05:56:52;;;;;;;19.47;6.53;;;11.30;99.90;;;;;;4962566;28;20211;-88
2022/01/02 05:59:19;;;;;;;17.00;6.60;;;11.30;99.90;;;;;;4960879;28;20255;-88
2022/01/02 06:01:47;;;;;;;18.90;6.67;;;11.30;99.90;;;;;;4953521;28;20294;-88
2022/01/02 06:04:16;;;;;;;18.53;7.37;;;11.30;99.90;;;;;;4953770;28;20215;-88
2022/01/02 06:06:44;;;;;;;18.77;6.93;;;11.40;99.90;;;;;;4967631;28;20247;-87
2022/01/02 06:09:11;;;;;;;17.77;6.17;;;11.30;99.90;;;;;;4953257;28;20215;-88
2022/01/02 06:11:39;;;;;;;17.00;6.33;;;11.30;99.90;;;;;;4945700;28;20209;-87
2022/01/02 06:14:06;;;;;;;13.43;6.20;;;11.30;99.90;;;;;;4980086;28;20635;-88
2022/01/02 06:16:33;;;;;;;18.57;6.47;;;11.30;99.90;;;;;;4951589;28;20228;-88
2022/01/02 06:19:01;;;;;;;16.87;5.63;;;11.30;99.90;;;;;;4952579;28;20597;-88
2022/01/02 06:21:29;;;;;;;20.93;6.43;;;11.20;99.90;;;;;;4953871;28;20224;-88
2022/01/02 06:23:56;;;;;;;17.47;6.60;;;11.20;99.90;;;;;;4969896;28;20204;-88
2022/01/02 06:26:23;;;;;;;17.00;6.60;;;11.30;99.90;;;;;;4969448;28;20291;-87
2022/01/02 06:28:50;;;;;;;18.60;6.27;;;11.60;99.90;;;;;;4984661;28;20207;-88
2022/01/02 06:31:18;;;;;;;18.33;6.83;;;11.30;99.90;;;;;;4980017;28;20606;-88
2022/01/02 06:33:45;;;;;;;17.33;6.60;;;11.30;99.90;;;;;;4953900;28;20212;-88
2022/01/02 06:36:12;;;;;;;21.60;7.87;;;11.30;99.90;;;;;;4983015;28;20290;-88
2022/01/02 06:38:40;;;;;;;20.60;6.90;;;;;;;;;;4961396;28;20900;-87
2022/01/02 06:41:07;;;;;;;13.80;5.40;;;11.30;99.90;;;;;;4985874;28;20235;-87
2022/01/02 06:43:35;;;;;;;15.37;5.80;;;11.30;99.90;;;;;;4952385;28;20208;-88
2022/01/02 06:46:02;;;;;;;18.70;6.57;;;11.30;99.90;;;;;;4950736;28;20215;-87
2022/01/02 06:48:29;;;;;;;16.17;6.10;;;11.30;99.90;;;;;;4967020;28;20242;-87
2022/01/02 06:50:58;;;;;;;17.93;6.77;;;11.70;99.90;;;;;;4964533;28;20258;-88
2022/01/02 06:53:26;;;;;;;20.33;7.43;;;11.30;99.90;;;;;;4985005;28;20219;-88
2022/01/02 06:55:54;;;;;;;17.97;6.27;;;11.40;99.90;;;;;;4953276;28;20219;-88
2022/01/02 06:58:22;;;;;;;16.63;5.83;;;11.40;99.90;;;;;;4958674;28;20248;-88
2022/01/02 07:00:48;;;;;;;16.33;5.67;;;11.40;99.90;;;;;;4951928;28;20240;-88
2022/01/02 07:03:16;;;;;;;15.93;5.67;;;11.40;99.90;;;;;;4958283;28;20235;-87
2022/01/02 07:05:43;;;;;;;18.13;5.70;;;11.40;99.90;;;;;;4954045;28;20244;-88
2022/01/02 07:08:12;;;;;;;15.83;5.30;;;11.40;99.90;;;;;;4965236;28;20971;-87
2022/01/02 07:10:39;;;;;;;16.27;5.67;;;11.40;99.90;;;;;;4951968;28;20255;-87
2022/01/02 07:13:07;;;;;;;20.80;6.73;;;11.30;99.90;;;;;;4959587;28;20345;-87
2022/01/02 07:15:34;;;;;;;17.23;6.03;;;11.40;99.90;;;;;;4984839;28;20234;-88
2022/01/02 07:18:01;;;;;;;13.57;5.37;;;11.40;99.90;;;;;;4959712;28;20230;-87
2022/01/02 07:20:28;;;;;;;16.70;5.90;;;11.40;99.90;;;;;;4968951;28;20246;-87
2022/01/02 07:22:55;;;;;;;22.03;6.90;;;11.30;99.90;;;;;;4969665;28;20218;-88
2022/01/02 07:25:22;;;;;;;20.73;7.13;;;11.40;99.90;;;;;;4955308;28;20228;-88
2022/01/02 07:27:58;;;;;;;19.77;6.47;;;12.00;99.90;;;;;;4953261;28;20299;-88
2022/01/02 07:30:27;;;;;;;18.43;6.57;;;11.40;99.90;;;;;;4955429;28;20224;-88
2022/01/02 07:32:54;;;;;;;15.83;5.97;;;11.40;99.90;;;;;;4966917;28;20243;-88
2022/01/02 07:35:21;;;;;;;14.23;5.27;;;11.40;99.90;;;;;;4951866;28;20249;-88
2022/01/02 07:37:48;;;;;;;14.87;6.50;;;11.50;99.90;;;;;;4951192;28;20220;-88
2022/01/02 07:40:15;;;;;;;14.27;5.60;;;11.60;99.90;;;;;;4954099;28;20236;-89
2022/01/02 07:42:42;;;;;;;16.20;5.50;;;11.50;99.90;;;;;;4969412;28;20237;-90
2022/01/02 07:45:16;;;;;;;14.20;5.50;;;11.50;99.90;;;;;;4952568;28;20224;-89
2022/01/02 07:47:45;;;;;;;14.93;5.60;;;12.00;99.90;;;;;;4956577;28;20216;-90
2022/01/02 07:50:13;;;;;;;16.83;5.90;;;11.60;99.90;;;;;;4960110;28;20232;-89
2022/01/02 07:52:40;;;;;;;15.17;5.73;;;11.60;99.90;;;;;;4963411;28;20298;-91
2022/01/02 07:55:09;;;;;;;14.93;5.50;;;11.60;99.90;;;;;;4954424;28;20226;-90
2022/01/02 07:57:37;;;;;;;16.40;5.10;;;11.60;99.90;;;;;;4963088;28;20591;-91
2022/01/02 08:00:05;;;;;;;17.10;6.07;;;11.60;99.90;;;;;;4958566;28;20232;-92
2022/01/02 08:02:39;;;;;;;17.87;5.90;;;11.60;99.90;;;;;;4978105;28;20205;-91
2022/01/02 08:05:10;;;;;;;14.23;5.90;;;11.60;99.90;;;;;;4970841;28;20199;-91
2022/01/02 08:07:39;;;;;;;21.13;6.17;;;11.70;99.90;;;;;;4985390;28;20207;-90
2022/01/02 08:10:06;;;;;;;16.87;5.23;;;11.70;99.90;;;;;;4952363;28;20231;-91
2022/01/02 08:12:33;;;;;;;14.97;5.37;;;11.70;99.90;;;;;;4964452;28;20923;-90
2022/01/02 08:15:00;;;;;;;16.43;5.87;;;11.70;99.90;;;;;;4952412;28;20310;-89
2022/01/02 08:17:27;;;;;;;14.77;5.50;;;11.60;99.90;;;;;;4969817;28;20215;-90
2022/01/02 08:19:54;;;;;;;14.67;5.37;;;11.80;99.90;;;;;;4967539;28;20243;-91
2022/01/02 08:22:25;;;;;;;13.23;4.90;;;11.80;99.90;;;;;;4960697;28;20770;-91
2022/01/02 08:24:52;;;;;;;13.13;4.20;;;11.80;99.90;;;;;;4961744;28;20208;-90
2022/01/02 08:27:21;;;;;;;13.87;5.10;;;11.00;99.90;;;;;;4969218;28;20267;-92
2022/01/02 08:29:49;;;;;;;13.53;4.80;;;11.70;99.90;;;;;;4951946;28;20449;-87
2022/01/02 08:32:16;;;;;;;14.00;5.20;;;11.90;99.90;;;;;;4953857;28;20219;-90
2022/01/02 08:34:43;;;;;;;16.27;5.67;;;11.90;99.90;;;;;;4966848;28;20210;-88
2022/01/02 08:37:11;;;;;;;13.17;4.70;;;11.90;99.90;;;;;;4964842;28;20212;-89
2022/01/02 08:39:39;;;;;;;13.83;5.47;;;11.80;99.90;;;;;;4958083;28;20238;-89
2022/01/02 08:42:07;;;;;;;16.70;5.70;;;12.10;99.90;;;;;;4967548;28;20668;-89
2022/01/02 08:44:34;;;;;;;14.50;5.37;;;12.00;99.90;;;;;;4967179;28;20311;-90
2022/01/02 08:47:01;;;;;;;15.43;5.37;;;12.10;99.90;;;;;;4965024;28;20204;-91
2022/01/02 08:49:28;;;;;;;11.03;4.03;;;12.10;99.90;;;;;;4965877;28;20235;-89
2022/01/02 08:51:58;;;;;;;12.50;4.97;;;12.10;99.90;;;;;;4949957;28;20711;-90
2022/01/02 08:54:25;;;;;;;15.20;5.57;;;12.10;99.90;;;;;;4952929;28;20292;-89
2022/01/02 08:56:53;;;;;;;13.27;4.90;;;12.30;99.90;;;;;;4950820;28;20200;-89
2022/01/02 08:59:24;;;;;;;13.60;4.57;;;12.70;99.90;;;;;;4985210;28;20223;-88
2022/01/02 09:01:52;;;;;;;14.63;4.77;;;12.30;99.90;;;;;;4952935;28;20210;-88
2022/01/02 09:04:19;;;;;;;12.27;5.07;;;12.40;99.90;;;;;;4954424;28;20209;-89
2022/01/02 09:06:47;;;;;;;12.33;4.77;;;12.40;99.90;;;;;;4962732;28;20391;-90
2022/01/02 09:09:14;;;;;;;17.97;5.43;;;12.40;99.90;;;;;;4971699;28;20262;-90
2022/01/02 09:11:41;;;;;;;13.90;5.00;;;12.40;99.90;;;;;;4951663;28;20215;-86
2022/01/02 09:14:09;;;;;;;14.70;4.80;;;12.30;99.90;;;;;;4953583;28;20212;-87
2022/01/02 09:16:36;;;;;;;15.87;5.50;;;12.40;99.90;;;;;;4972918;28;20204;-89
2022/01/02 09:19:06;;;;;;;13.80;5.07;;;12.40;99.90;;;;;;4972596;28;20220;-87
2022/01/02 09:21:33;;;;;;;14.60;5.00;;;12.70;99.90;;;;;;4973307;28;20990;-88
2022/01/02 09:24:00;;;;;;;14.37;5.10;;;12.80;99.90;;;;;;4974210;28;20218;-88
2022/01/02 09:26:27;;;;;;;11.40;4.73;;;12.50;99.90;;;;;;4971230;28;20298;-88
2022/01/02 09:28:54;;;;;;;13.00;5.20;;;12.30;99.90;;;;;;4955672;28;20208;-88
2022/01/02 09:31:23;;;;;;;16.27;4.80;;;12.40;99.90;;;;;;4956584;28;20265;-89
2022/01/02 09:33:50;;;;;;;14.67;5.23;;;12.60;99.90;;;;;;4971212;28;20211;-88
2022/01/02 09:36:18;;;;;;;12.87;5.20;;;13.60;99.90;;;;;;4957493;28;20212;-89
2022/01/02 09:38:50;;;;;;;13.13;5.23;;;12.60;99.90;;;;;;4956418;28;20200;-88
2022/01/02 09:41:19;;;;;;;12.97;5.47;;;12.60;99.90;;;;;;4955450;28;20327;-89
2022/01/02 09:43:47;;;;;;;13.40;5.30;;;12.60;99.90;;;;;;4958998;28;20239;-88
2022/01/02 09:46:19;;;;;;;14.83;5.90;;;13.20;99.90;;;;;;4966513;28;20597;-88
2022/01/02 09:48:49;;;;;;;15.73;5.80;;;13.20;99.90;;;;;;4954736;28;20196;-89
2022/01/02 09:51:17;;;;;;;15.37;5.87;;;12.60;99.90;;;;;;4953107;28;20231;-89
2022/01/02 09:53:46;;;;;;;12.73;4.77;;;12.60;99.90;;;;;;4957131;28;20577;-88
2022/01/02 09:56:13;;;;;;;18.50;5.60;;;12.60;99.90;;;;;;4970828;28;20656;-88
2022/01/02 09:58:42;;;;;;;13.13;4.70;;;12.70;99.90;;;;;;4953527;28;20227;-89
2022/01/02 10:01:13;;;;;;;15.47;5.17;;;12.70;99.90;;;;;;4953575;28;20231;-88
2022/01/02 10:03:43;;;;;;;12.67;5.10;;;12.80;99.90;;;;;;4989828;28;20216;-88
2022/01/02 10:06:12;;;;;;;14.33;5.20;;;12.80;99.90;;;;;;4972823;28;20231;-87
2022/01/02 10:08:39;;;;;;;13.87;5.60;;;12.90;99.90;;;;;;4966450;28;20770;-87
2022/01/02 10:11:15;;;;;;;14.73;4.97;;;13.40;99.90;;;;;;4957158;28;20257;-86
2022/01/02 10:13:45;;;;;;;13.30;5.20;;;12.90;99.90;;;;;;4953711;28;20244;-88
2022/01/02 10:16:24;;;;;;;18.47;6.20;;;13.00;99.90;;;;;;4974142;28;20219;-89
2022/01/02 10:18:52;;;;;;;16.37;5.70;;;13.10;99.90;;;;;;4968117;28;20219;-87
2022/01/02 10:21:33;;;;;;;16.47;5.50;;;13.10;99.90;;;;;;4974760;28;20224;-88
2022/01/02 10:24:11;;;;;;;12.43;4.80;;;14.20;99.90;;;;;;4971043;28;20291;-87
2022/01/02 10:26:39;;;;;;;14.17;5.00;;;13.20;99.90;;;;;;4969019;28;20227;-86
2022/01/02 10:29:11;;;;;;;13.63;4.87;;;13.20;99.90;;;;;;4967540;28;20208;-87
2022/01/02 10:31:38;;;;;;;12.83;4.90;;;13.30;99.90;;;;;;4946660;28;20235;-87
2022/01/02 10:34:05;;;;;;;15.43;5.40;;;13.40;99.90;;;;;;4969479;28;20208;-86
2022/01/02 10:36:35;;;;;;;16.73;5.00;;;13.60;99.90;;;;;;4956848;28;20482;-87
2022/01/02 10:39:09;;;;;;;14.90;5.07;;;13.50;99.90;;;;;;4969883;28;20219;-88
2022/01/02 10:41:38;;;;;;;13.20;4.67;;;13.60;99.90;;;;;;4971915;28;20211;-87
2022/01/02 10:44:23;;;;;;;13.93;4.53;;;13.70;99.90;;;;;;4964252;28;20216;-87
2022/01/02 10:47:11;;;;;;;15.03;4.83;;;13.70;99.90;;;;;;4971080;28;20210;-86
2022/01/02 10:50:05;;;;;;;11.53;4.43;;;13.80;99.90;;;;;;4968492;28;20251;-87
2022/01/02 10:52:36;;;;;;;12.77;4.30;;;13.90;99.90;;;;;;4961080;28;20216;-87
2022/01/02 10:55:06;;;;;;;19.27;5.50;;;14.00;99.90;;;;;;4956166;28;20223;-86
2022/01/02 10:57:34;;;;;;;13.20;4.87;;;14.10;99.90;;;;;;4955732;28;20239;-87
2022/01/02 11:00:01;;;;;;;17.00;5.17;;;14.30;99.90;;;;;;4962807;28;20259;-87
2022/01/02 11:02:29;;;;;;;14.40;5.67;;;14.40;99.90;;;;;;4951435;28;20699;-88
2022/01/02 11:04:59;;;;;;;14.67;4.90;;;14.60;99.90;;;;;;4952347;28;20231;-87
2022/01/02 11:07:26;;;;;;;12.07;4.87;;;14.70;99.90;;;;;;4951937;28;20270;-87
2022/01/02 11:09:56;;;;;;;13.57;5.43;;;14.70;99.90;;;;;;4957449;28;20327;-86
2022/01/02 11:12:24;;;;;;;17.33;5.47;;;14.70;99.90;;;;;;4958549;28;20223;-87
2022/01/02 11:14:52;;;;;;;15.45;4.90;;;14.70;99.90;;;;;;4971136;28;20211;-87
2022/01/02 11:17:20;;;;;;;20.33;5.57;;;14.80;99.90;;;;;;4971109;28;20274;-87
2022/01/02 11:19:47;;;;;;;16.00;5.85;;;14.80;99.90;;;;;;4952651;28;20788;-87
2022/01/02 11:22:20;;;;;;;17.40;5.50;;;14.80;99.90;;;;;;4970279;28;20438;-87
2022/01/02 11:25:01;;;;;;;14.03;5.83;;;14.80;99.90;;;;;;4965411;28;20681;-87
2022/01/02 11:27:37;;;;;;;18.80;7.15;;;14.90;99.90;;;;;;4979076;28;20243;-87
2022/01/02 11:30:34;;;;;;;17.43;6.77;;;14.90;99.90;;;;;;4982723;28;20935;-87
2022/01/02 11:33:02;;;;;;;;;;;14.90;99.90;;;;;;4967279;28;20220;-88
2022/01/02 11:35:31;;;;;;;19.47;6.80;;;15.00;99.90;;;;;;4960613;28;20019;-88
2022/01/02 11:38:01;;;;;;;14.27;5.63;;;15.00;99.90;;;;;;4963582;28;20683;-88
2022/01/02 11:40:51;;;;;;;16.33;5.90;;;14.90;99.90;;;;;;4971439;28;20259;-88
2022/01/02 11:43:53;;;;;;;9.87;4.53;;;15.00;99.90;;;;;;4963106;28;20780;-88
2022/01/02 11:46:23;;;;;;;11.07;4.13;;;14.90;99.90;;;;;;4968572;28;20219;-88
2022/01/02 11:49:27;;;;;;;17.37;6.03;;;14.80;99.90;;;;;;4963309;28;20219;-88
2022/01/02 11:52:21;;;;;;;13.03;5.17;;;14.80;99.90;;;;;;4964866;28;20234;-87
2022/01/02 11:54:51;;;;;;;14.80;5.40;;;14.80;99.90;;;;;;4972858;28;20216;-88
2022/01/02 11:57:51;;;;;;;;;;;14.80;99.90;;;;;;4958537;28;20237;-88
2022/01/02 12:00:41;;;;;;;14.63;5.33;;;14.70;99.90;;;;;;4975357;28;20386;-87
2022/01/02 12:03:43;;;;;;;;;;;14.70;99.90;;;;;;4957305;28;20290;-89
2022/01/02 12:06:13;;;;;;;;;;;14.70;99.90;;;;;;4969879;28;19957;-87
2022/01/02 12:08:40;;;;;;;13.27;5.07;;;14.70;99.90;;;;;;4953783;28;20410;-87
2022/01/02 12:11:37;;;;;;;14.83;4.60;;;14.70;99.90;;;;;;4971378;28;20216;-88
2022/01/02 12:14:05;;;;;;;16.20;4.97;;;14.70;99.90;;;;;;4972743;28;20206;-87
2022/01/02 12:16:39;;;;;;;18.40;5.50;;;14.60;99.90;;;;;;4952973;28;20239;-87
2022/01/02 12:19:08;;;;;;;12.30;4.50;;;14.50;99.90;;;;;;4968645;28;20216;-88
2022/01/02 12:21:35;;;;;;;15.00;4.90;;;14.50;99.90;;;;;;4954006;28;20654;-87
2022/01/02 12:24:05;;;;;;;13.63;4.77;;;14.40;99.90;;;;;;4952664;28;20227;-87
2022/01/02 12:26:34;;;;;;;18.37;5.17;;;14.40;99.90;;;;;;4968016;28;20217;-87
2022/01/02 12:29:06;;;;;;;14.27;4.63;;;14.40;99.90;;;;;;4952785;28;20219;-88
2022/01/02 12:31:36;;;;;;;13.27;4.73;;;14.40;99.90;;;;;;4969160;28;20218;-87
2022/01/02 12:34:06;;;;;;;14.07;4.57;;;14.30;99.90;;;;;;4970190;28;20230;-87
2022/01/02 12:36:35;;;;;;;14.30;4.83;;;14.30;99.90;;;;;;4969530;28;20271;-86
2022/01/02 12:39:05;;;;;;;10.93;4.10;;;14.30;99.90;;;;;;4970355;28;20323;-86
2022/01/02 12:41:33;;;;;;;;;;;14.30;99.90;;;;;;4970828;28;20228;-86
2022/01/02 12:44:01;;;;;;;;;;;14.30;99.90;;;;;;4977216;28;20286;-86
2022/01/02 12:46:37;;;;;;;;;;;14.20;99.90;;;;;;4975806;28;19922;-86
2022/01/02 12:49:05;;;;;;;;;;;14.20;99.90;;;;;;4976928;28;19933;-86
2022/01/02 12:51:32;;;;;;;;;;;14.10;99.90;;;;;;4969356;28;19922;-86
2022/01/02 12:54:03;;;;;;;;;;;14.10;99.90;;;;;;4985882;28;19930;-85
2022/01/02 12:56:38;;;;;;;;;;;14.10;99.90;;;;;;4960949;28;19922;-86
2022/01/02 12:59:15;;;;;;;;;;;14.10;99.90;;;;;;4975613;28;20097;-86